createdAt,value
2022-10-02T10:02:57.353Z,24.20
2022-10-02T10:06:11.488Z,24.60
2022-10-02T10:08:59.738Z,24.00
2022-10-02T10:12:05.641Z,23.30
2022-10-02T10:14:41.720Z,22.00
2022-10-02T10:17:31.019Z,22.50
2022-10-02T10:20:40.948Z,24.30
2022-10-02T10:23:25.845Z,25.90
2022-10-02T10:25:59.429Z,26.80
2022-10-02T10:28:48.387Z,26.80
2022-10-02T10:31:45.751Z,27.10
2022-10-02T10:34:52.741Z,27.60
2022-10-02T10:38:11.155Z,27.10
2022-10-02T10:41:06.146Z,27.20
2022-10-02T10:44:06.341Z,27.00
2022-10-02T10:47:15.628Z,26.70
2022-10-02T10:50:00.984Z,26.60
2022-10-02T10:53:04.422Z,26.40
2022-10-02T10:56:06.556Z,26.60
2022-10-02T10:59:25.610Z,26.90
2022-10-02T11:02:23.992Z,27.50
2022-10-02T11:05:47.109Z,28.10
2022-10-02T11:08:48.468Z,28.80
2022-10-02T11:11:41.534Z,29.20
2022-10-02T11:14:44.305Z,29.00
2022-10-02T11:17:42.524Z,27.60
2022-10-02T11:20:37.669Z,25.80
2022-10-02T11:23:34.938Z,25.60
2022-10-02T11:26:27.626Z,26.10
2022-10-02T11:29:35.502Z,26.70
2022-10-02T11:32:28.243Z,27.50
2022-10-02T11:35:19.624Z,28.40
2022-10-02T11:38:03.669Z,28.30
2022-10-02T11:40:59.647Z,28.00
2022-10-02T11:44:06.420Z,27.80
2022-10-02T11:47:21.624Z,27.40
2022-10-02T11:50:38.669Z,27.40
2022-10-02T11:53:57.832Z,27.50
2022-10-02T11:56:42.510Z,26.80
2022-10-02T12:00:04.741Z,26.20
2022-10-02T12:03:21.412Z,26.10
2022-10-02T12:06:04.609Z,26.20
2022-10-02T12:09:01.379Z,26.30
2022-10-02T12:11:42.360Z,26.30
2022-10-02T12:14:28.532Z,26.60
2022-10-02T12:17:14.182Z,26.90
2022-10-02T12:20:15.627Z,25.70
2022-10-02T12:23:45.909Z,24.40
2022-10-02T12:27:02.905Z,24.50
2022-10-02T16:22:07.567Z,14.10
2022-10-02T16:25:09.248Z,13.70
2022-10-02T16:28:34.393Z,13.70
2022-10-02T16:31:42.201Z,13.50
2022-10-02T16:34:15.910Z,13.30
2022-10-02T16:36:58.469Z,13.30
2022-10-02T16:39:55.537Z,13.20
2022-10-02T16:42:42.371Z,13.20
2022-10-02T16:45:47.428Z,13.20
2022-10-02T16:48:25.864Z,13.10
2022-10-02T16:51:24.927Z,13.10
2022-10-02T16:54:25.559Z,13.10
2022-10-02T16:57:24.832Z,13.10
2022-10-02T17:00:31.066Z,13.10
2022-10-02T17:03:21.786Z,13.00
2022-10-02T17:05:53.882Z,12.90
2022-10-02T17:09:01.659Z,12.80
2022-10-02T17:11:37.502Z,12.60
2022-10-02T17:14:47.442Z,12.50
2022-10-02T17:17:47.658Z,12.30
2022-10-02T17:20:23.080Z,12.20
2022-10-02T17:23:28.338Z,12.10
2022-10-02T17:26:15.164Z,12.00
2022-10-02T17:29:16.472Z,11.90
2022-10-02T17:32:01.641Z,11.80
2022-10-02T17:34:45.042Z,11.80
2022-10-02T17:37:18.420Z,11.70
2022-10-02T17:40:21.434Z,11.70
2022-10-02T17:43:09.421Z,11.80
2022-10-02T17:45:59.867Z,12.00
2022-10-02T17:49:06.612Z,12.00
2022-10-02T17:51:58.668Z,12.10
2022-10-02T17:55:04.129Z,12.10
2022-10-02T17:57:37.499Z,12.10
2022-10-02T18:00:12.243Z,12.10
2022-10-02T18:03:30.967Z,12.10
2022-10-02T18:06:42.564Z,12.00
2022-10-02T18:09:24.646Z,12.00
2022-10-02T18:12:07.329Z,12.00
2022-10-02T18:14:58.733Z,12.00
2022-10-02T18:18:07.781Z,12.10
2022-10-02T18:20:59.520Z,12.10
2022-10-02T18:23:43.560Z,12.10
2022-10-02T18:26:28.743Z,12.20
2022-10-02T18:29:26.900Z,12.20
2022-10-02T18:32:35.418Z,12.20
2022-10-02T18:35:24.195Z,12.10
2022-10-02T18:41:27.422Z,12.00
2022-10-02T18:44:48.628Z,11.80
2022-10-02T18:47:45.138Z,11.70
2022-10-02T18:50:57.071Z,11.60
2022-10-02T18:53:49.157Z,11.50
2022-10-02T18:56:45.039Z,11.50
2022-10-02T18:59:46.349Z,11.30
2022-10-02T19:02:27.527Z,11.30
2022-10-02T19:05:33.661Z,11.20
2022-10-02T19:08:03.795Z,11.20
2022-10-02T19:10:33.814Z,11.10
2022-10-02T19:13:17.626Z,11.10
2022-10-02T19:15:48.818Z,11.10
2022-10-02T19:18:19.169Z,11.10
2022-10-02T19:21:06.792Z,11.20
2022-10-02T19:23:50.606Z,11.20
2022-10-02T19:26:30.482Z,11.30
2022-10-02T19:29:14.353Z,11.40
2022-10-02T19:31:42.360Z,11.40
2022-10-02T19:34:24.621Z,11.60
2022-10-02T19:36:57.366Z,11.60
2022-10-02T19:39:31.372Z,11.70
2022-10-02T19:42:04.197Z,11.80
2022-10-02T19:44:48.474Z,11.90
2022-10-02T19:47:32.919Z,11.90
2022-10-02T19:50:02.501Z,12.00
2022-10-02T19:52:59.881Z,12.00
2022-10-02T19:55:34.261Z,12.00
2022-10-02T19:58:16.089Z,12.00
2022-10-02T20:00:44.188Z,11.90
2022-10-02T20:03:21.712Z,11.90
2022-10-02T20:06:17.049Z,11.90
2022-10-02T20:09:01.471Z,11.90
2022-10-02T20:11:51.879Z,11.90
2022-10-02T20:14:57.586Z,11.90
2022-10-02T20:17:25.195Z,11.90
2022-10-02T20:19:58.281Z,11.80
2022-10-02T20:22:52.623Z,11.80
2022-10-02T20:25:28.679Z,11.80
2022-10-02T20:28:25.018Z,11.80
2022-10-02T20:31:11.485Z,11.80
2022-10-02T20:33:47.434Z,11.80
2022-10-02T20:36:26.358Z,11.70
2022-10-02T20:39:12.420Z,11.60
2022-10-02T20:42:05.014Z,11.50
2022-10-02T20:44:36.665Z,11.50
2022-10-02T20:47:19.926Z,11.30
2022-10-02T20:50:52.002Z,11.30
2022-10-02T20:54:15.329Z,11.30
2022-10-02T20:57:05.573Z,11.30
2022-10-02T21:00:03.124Z,11.30
2022-10-02T21:03:13.714Z,11.30
2022-10-02T21:05:50.176Z,11.40
2022-10-02T21:09:01.084Z,11.40
2022-10-02T21:11:58.702Z,11.40
2022-10-02T21:14:42.664Z,11.40
2022-10-02T21:17:34.525Z,11.40
2022-10-02T21:20:16.628Z,11.40
2022-10-02T21:23:23.692Z,11.30
2022-10-02T21:26:33.214Z,11.30
2022-10-02T21:29:44.420Z,11.20
2022-10-02T21:32:32.767Z,11.10
2022-10-02T21:35:16.880Z,11.00
2022-10-02T21:38:18.118Z,11.00
2022-10-02T21:41:30.003Z,11.00
2022-10-02T21:44:28.260Z,11.10
2022-10-02T21:48:04.779Z,11.20
2022-10-02T21:51:10.788Z,11.20
2022-10-02T21:54:12.629Z,11.20
2022-10-02T21:57:10.624Z,11.20
2022-10-02T21:59:47.096Z,11.10
2022-10-02T22:02:20.149Z,11.10
2022-10-02T22:04:53.930Z,11.00
2022-10-02T22:07:47.478Z,11.00
2022-10-02T22:10:43.441Z,11.00
2022-10-02T22:13:23.422Z,10.90
2022-10-02T22:16:04.435Z,10.80
2022-10-02T22:19:05.137Z,10.80
2022-10-02T22:24:46.902Z,10.80
2022-10-02T22:27:50.714Z,10.90
2022-10-02T22:30:31.099Z,10.90
2022-10-02T22:33:24.192Z,11.00
2022-10-02T22:35:58.595Z,11.10
2022-10-02T22:38:53.324Z,11.10
2022-10-02T22:41:50.210Z,11.20
2022-10-02T22:44:18.184Z,11.20
2022-10-02T22:47:26.022Z,11.20
2022-10-02T22:50:08.426Z,11.10
2022-10-02T22:52:58.496Z,11.10
2022-10-02T22:55:34.184Z,11.10
2022-10-02T22:58:19.039Z,11.10
2022-10-02T23:01:11.204Z,11.20
2022-10-02T23:03:57.699Z,11.10
2022-10-02T23:06:33.180Z,11.10
2022-10-02T23:09:20.981Z,11.10
2022-10-02T23:12:12.197Z,11.10
2022-10-02T23:15:35.931Z,11.00
2022-10-02T23:18:19.469Z,10.90
2022-10-02T23:21:29.265Z,10.90
2022-10-02T23:24:17.402Z,10.90
2022-10-02T23:27:12.134Z,10.90
2022-10-02T23:30:04.345Z,10.80
2022-10-02T23:32:49.162Z,10.90
2022-10-02T23:35:47.130Z,10.90
2022-10-02T23:38:48.744Z,11.00
2022-10-02T23:41:47.238Z,11.10
2022-10-02T23:44:41.716Z,11.20
2022-10-02T23:47:32.553Z,11.20
2022-10-02T23:50:01.534Z,11.30
2022-10-02T23:52:45.266Z,11.30
2022-10-02T23:56:23.247Z,11.30
2022-10-02T23:59:18.237Z,11.30
